Alamo Heights, Texas
Current Conditions -  °F | °C
As of 11:51 AM on Thursday 23 Oct 2014 (Local Time) from KSAT Reporting Station
Scattered Clouds Scattered Clouds  
Wind Chill: 78°   Ceiling: Unl
Heat Index: 79°   Visibility: 10mi
Dew Point: 59°   Wind: 3mph
Humidity: 52%   Direction: NA
Pressure: 30.16"   Gusts: NA
Location:  29.4797°N, 98.4508°W
Report Text: KSAT 231651Z VRB03KT 10SM FEW035 SCT110 26/15 A3016 RMK AO2 SLP195 T02560150 $
Loading
Personal Weather Stations






























Interactive Weather Map New forecast layout! Learn more

10-Day Weather Forecast

Advertisements
Track Severe Weather on mobile